Time;durP1;ratioP1;P1;durP2;ratioP2;P2;SDS_P1;SDS_P2;PMS_P1;PMS_P2;Temp;Humidity;BMP_temperature;BMP_pressure;BME280_temperature;BME280_humidity;BME280_pressure;Samples;Min_cycle;Max_cycle;Signal;HPM_P1;HPM_P2
2022/06/19 00:01:59;;;;;;;10.60;2.67;;;;;;;;;;4933829;28;20038;-76
2022/06/19 00:04:28;;;;;;;14.05;3.47;;;;;;;;;;4938773;28;20027;-75
2022/06/19 00:06:57;;;;;;;10.02;2.90;;;;;;;;;;4932061;28;20544;-76
2022/06/19 00:09:26;;;;;;;13.60;4.20;;;;;;;;;;4940171;28;20493;-75
2022/06/19 00:11:55;;;;;;;12.57;4.05;;;;;;;;;;4936519;28;20113;-75
2022/06/19 00:14:29;;;;;;;11.82;3.90;;;;;;;;;;4939692;28;20086;-76
2022/06/19 00:16:56;;;;;;;11.93;3.20;;;;;;;;;;4935288;28;20035;-75
2022/06/19 00:19:24;;;;;;;16.55;3.90;;;;;;;;;;4939499;28;20031;-76
2022/06/19 00:21:51;;;;;;;10.52;3.42;;;;;;;;;;4935345;28;20406;-75
2022/06/19 00:24:19;;;;;;;12.85;3.30;;;;;;;;;;4935982;28;20185;-75
2022/06/19 00:26:47;;;;;;;15.15;3.30;;;;;;;;;;4929895;28;20433;-76
2022/06/19 00:29:16;;;;;;;11.02;2.88;;;;;;;;;;4933131;28;20031;-75
2022/06/19 00:31:45;;;;;;;14.13;3.10;;;;;;;;;;4931683;28;20122;-76
2022/06/19 00:34:13;;;;;;;10.77;2.55;;;;;;;;;;4940256;28;20062;-75
2022/06/19 00:36:45;;;;;;;10.65;2.70;;;;;;;;;;4933575;28;20031;-75
2022/06/19 00:39:12;;;;;;;14.80;2.97;;;;;;;;;;4922327;28;20542;-76
2022/06/19 00:41:44;;;;;;;12.32;3.00;;;;;;;;;;4940102;28;20493;-76
2022/06/19 00:44:13;;;;;;;13.40;3.35;;;;;;;;;;4936937;28;20126;-77
2022/06/19 00:46:49;;;;;;;16.02;3.10;;;;;;;;;;4923234;28;20367;-76
2022/06/19 00:49:28;;;;;;;12.73;3.33;;;;;;;;;;4936034;28;20038;-77
2022/06/19 00:52:07;;;;;;;11.55;3.08;;;;;;;;;;4933647;28;20042;-77
2022/06/19 00:54:38;;;;;;;13.00;2.60;;;;;;;;;;4941275;28;20070;-77
2022/06/19 00:57:05;;;;;;;8.93;2.35;;;;;;;;;;4931775;28;20574;-77
2022/06/19 00:59:31;;;;;;;12.07;2.55;;;;;;;;;;4937291;28;20035;-76
2022/06/19 01:01:59;;;;;;;12.13;2.65;;;;;;;;;;4936299;28;20035;-77
2022/06/19 01:04:38;;;;;;;12.32;2.40;;;;;;;;;;4943659;28;20114;-76
2022/06/19 01:07:05;;;;;;;13.02;2.83;;;;;;;;;;4942673;28;20493;-77
2022/06/19 01:09:32;;;;;;;14.38;2.50;;;;;;;;;;4942763;28;20505;-77
2022/06/19 01:12:00;;;;;;;10.88;2.60;;;;;;;;;;4938340;28;20031;-77
2022/06/19 01:14:27;;;;;;;9.63;2.30;;;;;;;;;;4944158;28;20580;-76
2022/06/19 01:16:54;;;;;;;15.30;2.58;;;;;;;;;;4939111;28;20357;-77
2022/06/19 01:19:25;;;;;;;10.85;2.30;;;;;;;;;;4944199;28;20035;-77
2022/06/19 01:22:00;;;;;;;10.40;2.47;;;;;;;;;;4942618;28;20602;-77
2022/06/19 01:24:26;;;;;;;11.52;2.88;;;;;;;;;;4938947;28;20714;-77
2022/06/19 01:26:58;;;;;;;14.80;2.70;;;;;;;;;;4938771;28;20038;-77
2022/06/19 01:29:28;;;;;;;10.88;2.47;;;;;;;;;;4946505;28;20668;-78
2022/06/19 01:31:56;;;;;;;11.80;2.35;;;;;;;;;;4921419;28;20026;-77
2022/06/19 01:34:35;;;;;;;13.20;2.20;;;;;;;;;;4939612;28;20662;-77
2022/06/19 01:37:16;;;;;;;11.68;2.20;;;;;;;;;;4933489;28;20034;-77
2022/06/19 01:39:44;;;;;;;16.33;3.08;;;;;;;;;;4937801;28;20031;-77
2022/06/19 01:42:11;;;;;;;12.70;2.83;;;;;;;;;;4940674;28;20023;-78
2022/06/19 01:44:38;;;;;;;11.77;3.13;;;;;;;;;;4941695;28;21352;-78
2022/06/19 01:47:04;;;;;;;14.68;3.10;;;;;;;;;;4939618;28;20672;-77
2022/06/19 01:49:32;;;;;;;13.93;3.38;;;;;;;;;;4924567;28;20027;-77
2022/06/19 01:51:58;;;;;;;13.93;2.80;;;;;;;;;;4938576;28;20069;-77
2022/06/19 01:54:38;;;;;;;11.10;2.60;;;;;;;;;;4941716;28;20385;-77
2022/06/19 01:57:11;;;;;;;9.70;2.80;;;;;;;;;;4935846;28;20269;-77
2022/06/19 01:59:40;;;;;;;12.88;2.80;;;;;;;;;;4940039;28;20034;-78
2022/06/19 02:02:20;;;;;;;13.35;2.80;;;;;;;;;;4937685;28;20034;-77
2022/06/19 02:04:48;;;;;;;12.90;2.60;;;;;;;;;;4937907;28;20069;-77
2022/06/19 02:07:19;;;;;;;14.52;2.72;;;;;;;;;;4936980;28;20103;-77
2022/06/19 02:09:48;;;;;;;10.60;2.75;;;;;;;;;;4935263;28;20502;-77
2022/06/19 02:12:17;;;;;;;12.43;2.70;;;;;;;;;;4936459;28;20026;-77
2022/06/19 02:14:44;;;;;;;13.90;2.50;;;;;;;;;;4937764;28;20404;-76
2022/06/19 02:17:34;;;;;;;12.13;2.70;;;;;;;;;;4935760;28;20027;-77
2022/06/19 02:20:03;;;;;;;12.15;2.75;;;;;;;;;;4937612;28;20151;-74
2022/06/19 02:22:32;;;;;;;10.07;2.40;;;;;;;;;;4941293;28;20392;-75
2022/06/19 02:25:01;;;;;;;12.00;2.50;;;;;;;;;;4938829;28;20648;-77
2022/06/19 02:27:42;;;;;;;11.80;2.28;;;;;;;;;;4941252;28;20033;-77
2022/06/19 02:30:14;;;;;;;9.98;2.40;;;;;;;;;;4936522;28;20377;-77
2022/06/19 02:32:47;;;;;;;10.88;2.50;;;;;;;;;;4938285;28;20185;-76
2022/06/19 02:35:35;;;;;;;10.10;2.30;;;;;;;;;;4941794;28;20061;-76
2022/06/19 02:38:07;;;;;;;12.25;2.38;;;;;;;;;;4936216;28;20383;-76
2022/06/19 02:40:54;;;;;;;13.68;2.53;;;;;;;;;;4941107;28;20039;-77
2022/06/19 02:43:26;;;;;;;9.65;2.40;;;;;;;;;;4942503;28;20397;-76
2022/06/19 02:45:55;;;;;;;13.43;2.10;;;;;;;;;;4916861;28;20049;-76
2022/06/19 02:48:28;;;;;;;12.15;2.45;;;;;;;;;;4939659;28;20351;-76
2022/06/19 02:51:02;;;;;;;8.95;2.15;;;;;;;;;;4935372;28;20502;-74
2022/06/19 02:53:31;;;;;;;12.13;2.63;;;;;;;;;;4945102;28;20045;-77
2022/06/19 02:55:58;;;;;;;10.77;2.35;;;;;;;;;;4935622;28;20532;-77
2022/06/19 02:58:25;;;;;;;10.70;2.58;;;;;;;;;;4941144;28;20031;-77
2022/06/19 03:00:51;;;;;;;13.82;2.60;;;;;;;;;;4939219;28;20058;-77
2022/06/19 03:03:20;;;;;;;9.68;2.47;;;;;;;;;;4935418;28;20253;-77
2022/06/19 03:05:47;;;;;;;8.38;1.98;;;;;;;;;;4938168;28;20035;-75
2022/06/19 03:08:13;;;;;;;14.90;2.90;;;;;;;;;;4942294;28;20031;-74
2022/06/19 03:10:39;;;;;;;16.42;2.97;;;;;;;;;;4940586;28;20077;-76
2022/06/19 03:13:05;;;;;;;13.85;2.65;;;;;;;;;;4935593;28;20030;-76
2022/06/19 03:15:31;;;;;;;14.40;2.85;;;;;;;;;;4940532;28;20069;-76
2022/06/19 03:17:58;;;;;;;14.52;2.55;;;;;;;;;;4934197;28;20130;-76
2022/06/19 03:20:25;;;;;;;13.07;2.75;;;;;;;;;;4939353;28;20588;-76
2022/06/19 03:22:51;;;;;;;15.13;2.90;;;;;;;;;;4934376;28;20034;-76
2022/06/19 03:25:18;;;;;;;13.43;2.70;;;;;;;;;;4935660;28;20106;-76
2022/06/19 03:27:45;;;;;;;12.13;2.40;;;;;;;;;;4939717;28;20026;-76
2022/06/19 03:30:12;;;;;;;13.80;2.83;;;;;;;;;;4938993;28;20173;-76
2022/06/19 03:32:38;;;;;;;10.73;2.30;;;;;;;;;;4939679;28;20027;-76
2022/06/19 03:35:04;;;;;;;14.73;2.83;;;;;;;;;;4938090;28;22428;-76
2022/06/19 03:37:30;;;;;;;13.32;2.60;;;;;;;;;;4942821;28;20053;-76
2022/06/19 03:39:57;;;;;;;11.55;2.60;;;;;;;;;;4944976;28;20187;-75
2022/06/19 03:42:23;;;;;;;12.80;2.72;;;;;;;;;;4938071;28;20063;-75
2022/06/19 03:44:49;;;;;;;10.90;2.78;;;;;;;;;;4935678;28;20446;-76
2022/06/19 03:47:22;;;;;;;11.25;2.53;;;;;;;;;;4939736;28;20364;-77
2022/06/19 03:49:49;;;;;;;13.25;2.78;;;;;;;;;;4933286;28;20575;-75
2022/06/19 03:52:15;;;;;;;11.88;2.72;;;;;;;;;;4937486;28;20054;-76
2022/06/19 03:54:42;;;;;;;11.23;2.88;;;;;;;;;;4937432;28;20027;-76
2022/06/19 03:57:14;;;;;;;13.10;2.55;;;;;;;;;;4939499;28;20066;-77
2022/06/19 03:59:42;;;;;;;12.18;2.78;;;;;;;;;;4936337;28;20031;-75
2022/06/19 04:02:12;;;;;;;13.18;2.60;;;;;;;;;;4936865;28;20035;-76
2022/06/19 04:04:41;;;;;;;16.60;3.30;;;;;;;;;;4933916;28;20567;-77
2022/06/19 04:07:11;;;;;;;11.48;2.72;;;;;;;;;;4936030;28;20129;-77
2022/06/19 04:09:39;;;;;;;10.88;2.50;;;;;;;;;;4922314;28;20029;-76
2022/06/19 04:12:09;;;;;;;17.00;2.80;;;;;;;;;;4933566;28;20652;-76
2022/06/19 04:14:38;;;;;;;12.25;2.70;;;;;;;;;;4940025;28;20027;-77
2022/06/19 04:17:26;;;;;;;12.20;2.53;;;;;;;;;;4936822;28;20521;-76
2022/06/19 04:19:54;;;;;;;11.55;2.40;;;;;;;;;;4933502;28;20050;-76
2022/06/19 04:22:20;;;;;;;11.50;2.90;;;;;;;;;;4939953;28;20035;-76
2022/06/19 04:24:48;;;;;;;14.95;3.00;;;;;;;;;;4932912;28;20102;-75
2022/06/19 04:27:17;;;;;;;12.80;2.70;;;;;;;;;;4941782;28;20038;-76
2022/06/19 04:29:44;;;;;;;11.07;2.50;;;;;;;;;;4937578;28;20049;-77
2022/06/19 04:32:10;;;;;;;15.75;2.92;;;;;;;;;;4937535;28;20038;-77
2022/06/19 04:34:38;;;;;;;11.30;2.70;;;;;;;;;;4941024;28;20061;-76
2022/06/19 04:37:05;;;;;;;15.98;2.90;;;;;;;;;;4935564;28;23254;-76
2022/06/19 04:39:33;;;;;;;18.35;3.15;;;;;;;;;;4920633;28;20121;-77
2022/06/19 04:42:03;;;;;;;12.57;2.80;;;;;;;;;;4934230;28;20050;-77
2022/06/19 04:44:30;;;;;;;12.02;3.00;;;;;;;;;;4932781;28;20669;-76
2022/06/19 04:46:59;;;;;;;13.40;3.17;;;;;;;;;;4933700;28;20393;-75
2022/06/19 04:49:27;;;;;;;15.95;3.25;;;;;;;;;;4940048;28;20027;-75
2022/06/19 04:51:55;;;;;;;16.75;3.35;;;;;;;;;;4933766;28;20061;-76
2022/06/19 04:54:23;;;;;;;11.98;2.97;;;;;;;;;;4937613;28;20389;-75
2022/06/19 04:56:49;;;;;;;14.93;2.65;;;;;;;;;;4934122;28;20055;-76
2022/06/19 04:59:16;;;;;;;15.80;3.20;;;;;;;;;;4937140;28;20493;-76
2022/06/19 05:01:42;;;;;;;17.58;3.22;;;;;;;;;;4940368;28;20478;-76
2022/06/19 05:04:10;;;;;;;13.73;3.10;;;;;;;;;;4931157;28;20117;-75
2022/06/19 05:06:36;;;;;;;11.07;2.72;;;;;;;;;;4938388;28;20141;-76
2022/06/19 05:09:03;;;;;;;13.45;3.00;;;;;;;;;;4936436;28;20093;-76
2022/06/19 05:11:31;;;;;;;13.50;2.63;;;;;;;;;;4922877;28;20162;-76
2022/06/19 05:13:58;;;;;;;9.70;2.33;;;;;;;;;;4936423;28;20038;-76
2022/06/19 05:16:25;;;;;;;10.88;2.67;;;;;;;;;;4939492;28;20689;-77
2022/06/19 05:18:53;;;;;;;12.85;2.75;;;;;;;;;;4918058;28;20074;-76
2022/06/19 05:21:19;;;;;;;17.10;3.03;;;;;;;;;;4935346;28;20069;-77
2022/06/19 05:23:46;;;;;;;12.85;2.65;;;;;;;;;;4937122;28;20055;-77
2022/06/19 05:26:13;;;;;;;17.13;2.80;;;;;;;;;;4937097;28;20046;-76
2022/06/19 05:28:40;;;;;;;15.30;3.08;;;;;;;;;;4932061;28;20039;-76
2022/06/19 05:31:06;;;;;;;13.70;3.08;;;;;;;;;;4929884;28;20149;-76
2022/06/19 05:33:33;;;;;;;20.48;3.72;;;;;;;;;;4934899;28;20027;-76
2022/06/19 05:35:59;;;;;;;14.63;3.28;;;;;;;;;;4928820;28;20054;-77
2022/06/19 05:38:26;;;;;;;14.48;2.90;;;;;;;;;;4933925;28;20038;-77
2022/06/19 05:40:54;;;;;;;13.60;3.00;;;;;;;;;;4930241;28;20086;-76
2022/06/19 05:43:21;;;;;;;11.75;2.75;;;;;;;;;;4926007;28;20178;-75
2022/06/19 05:45:51;;;;;;;11.95;2.65;;;;;;;;;;4930006;28;20414;-76
2022/06/19 05:48:17;;;;;;;17.55;2.95;;;;;;;;;;4934649;28;20294;-75
2022/06/19 05:50:43;;;;;;;12.85;2.50;;;;;;;;;;4935754;28;20540;-76
2022/06/19 05:53:10;;;;;;;12.80;2.47;;;;;;;;;;4932007;28;20031;-78
2022/06/19 05:55:39;;;;;;;12.35;2.42;;;;;;;;;;4931385;28;20583;-75
2022/06/19 05:58:08;;;;;;;11.30;2.22;;;;;;;;;;4933570;28;20637;-78
2022/06/19 06:00:35;;;;;;;9.98;2.70;;;;;;;;;;4933524;28;20092;-78
2022/06/19 06:03:03;;;;;;;12.75;2.40;;;;;;;;;;4932575;28;20069;-77
2022/06/19 06:05:31;;;;;;;13.07;2.38;;;;;;;;;;4932358;28;20054;-77
2022/06/19 06:07:59;;;;;;;8.90;2.05;;;;;;;;;;4926855;28;20118;-77
2022/06/19 06:10:28;;;;;;;11.32;2.58;;;;;;;;;;4932081;28;20049;-76
2022/06/19 06:12:56;;;;;;;12.95;2.40;;;;;;;;;;4929819;28;20034;-77
2022/06/19 06:15:23;;;;;;;10.52;2.40;;;;;;;;;;4928739;28;20058;-76
2022/06/19 06:17:52;;;;;;;15.50;2.75;;;;;;;;;;4916746;28;20561;-75
2022/06/19 06:20:18;;;;;;;10.93;2.70;;;;;;;;;;4936100;28;20343;-76
2022/06/19 06:22:47;;;;;;;13.07;2.88;;;;;;;;;;4931755;28;20089;-76
2022/06/19 06:25:15;;;;;;;15.43;2.78;;;;;;;;;;4930046;28;20644;-76
2022/06/19 06:27:42;;;;;;;11.98;2.60;;;;;;;;;;4931250;28;20086;-77
2022/06/19 06:30:12;;;;;;;13.27;2.78;;;;;;;;;;4929990;28;20311;-76
2022/06/19 06:32:40;;;;;;;12.35;2.65;;;;;;;;;;4912292;28;20154;-77
2022/06/19 06:35:10;;;;;;;10.60;2.15;;;;;;;;;;4913794;28;20038;-76
2022/06/19 06:37:38;;;;;;;13.18;2.60;;;;;;;;;;4923211;28;20577;-76
2022/06/19 06:40:07;;;;;;;11.25;2.50;;;;;;;;;;4903343;28;20521;-77
2022/06/19 06:42:36;;;;;;;11.30;2.53;;;;;;;;;;4911810;28;20043;-77
2022/06/19 06:45:05;;;;;;;11.32;2.33;;;;;;;;;;4914904;28;20324;-76
2022/06/19 06:47:33;;;;;;;13.68;2.90;;;;;;;;;;4911713;28;20043;-77
2022/06/19 06:50:00;;;;;;;11.27;2.15;;;;;;;;;;4911429;28;20032;-76
2022/06/19 06:52:29;;;;;;;14.57;2.65;;;;;;;;;;4915037;28;20393;-77
2022/06/19 06:54:56;;;;;;;10.77;2.75;;;;;;;;;;4909593;28;20043;-77
2022/06/19 06:57:26;;;;;;;11.68;2.55;;;;;;;;;;4915818;28;20637;-76
2022/06/19 06:59:52;;;;;;;9.35;2.08;;;;;;;;;;4901109;28;20099;-76
2022/06/19 07:02:18;;;;;;;13.45;2.67;;;;;;;;;;4915762;28;20106;-76
2022/06/19 07:04:44;;;;;;;11.75;2.45;;;;;;;;;;4913444;28;20572;-76
2022/06/19 07:07:11;;;;;;;12.82;2.47;;;;;;;;;;4906067;28;20157;-77
2022/06/19 07:09:38;;;;;;;12.40;2.60;;;;;;;;;;4916892;28;20098;-76
2022/06/19 07:12:05;;;;;;;12.63;2.72;;;;;;;;;;4905076;28;21457;-75
2022/06/19 07:14:31;;;;;;;11.50;2.58;;;;;;;;;;4908068;28;20015;-76
2022/06/19 07:16:57;;;;;;;10.82;2.22;;;;;;;;;;4907199;28;20512;-76
2022/06/19 07:19:24;;;;;;;12.70;2.70;;;;;;;;;;4934530;28;20105;-77
2022/06/19 07:21:50;;;;;;;10.23;2.65;;;;;;;;;;4917743;28;20111;-75
2022/06/19 07:24:16;;;;;;;13.93;2.72;;;;;;;;;;4933538;28;20118;-75
2022/06/19 07:26:42;;;;;;;13.70;2.80;;;;;;;;;;4930846;28;20062;-74
2022/06/19 07:29:09;;;;;;;11.55;2.92;;;;;;;;;;4926656;28;20059;-75
2022/06/19 07:31:36;;;;;;;14.18;2.78;;;;;;;;;;4931315;28;20594;-75
2022/06/19 07:34:03;;;;;;;10.93;2.38;;;;;;;;;;4927038;28;20085;-75
2022/06/19 07:36:29;;;;;;;15.57;3.13;;;;;;;;;;4936069;28;20511;-77
2022/06/19 07:38:56;;;;;;;15.07;2.95;;;;;;;;;;4934635;28;20200;-75
2022/06/19 07:41:23;;;;;;;12.07;2.63;;;;;;;;;;4937391;28;20035;-77
2022/06/19 07:43:50;;;;;;;10.85;2.72;;;;;;;;;;4930612;28;20484;-78
2022/06/19 07:46:17;;;;;;;12.20;2.97;;;;;;;;;;4935248;28;20035;-77
2022/06/19 07:51:31;;;;;;;12.35;2.58;;;;;;;;;;4937219;28;20038;-78
2022/06/19 07:54:03;;;;;;;14.75;3.30;;;;;;;;;;4938103;28;20066;-79
2022/06/19 07:56:32;;;;;;;16.33;3.58;;;;;;;;;;4939306;28;20053;-77
2022/06/19 07:59:02;;;;;;;10.75;2.72;;;;;;;;;;4921162;28;20046;-78
2022/06/19 08:01:34;;;;;;;13.10;3.05;;;;;;;;;;4942190;28;20027;-76
2022/06/19 08:04:04;;;;;;;12.27;2.78;;;;;;;;;;4934454;28;20035;-76
2022/06/19 08:06:31;;;;;;;13.38;2.88;;;;;;;;;;4931945;28;20050;-77
2022/06/19 08:09:00;;;;;;;11.55;2.67;;;;;;;;;;4923378;28;20141;-77
2022/06/19 08:11:26;;;;;;;13.85;3.08;;;;;;;;;;4936672;28;21209;-78
2022/06/19 08:13:54;;;;;;;11.43;2.85;;;;;;;;;;4930230;28;20114;-77
2022/06/19 08:16:23;;;;;;;12.88;3.05;;;;;;;;;;4938354;28;20034;-77
2022/06/19 08:18:50;;;;;;;13.13;3.10;;;;;;;;;;4930238;28;20031;-76
2022/06/19 08:21:21;;;;;;;15.88;3.00;;;;;;;;;;4933790;28;20057;-76
2022/06/19 08:23:52;;;;;;;13.82;3.00;;;;;;;;;;4935292;28;20526;-76
2022/06/19 08:26:21;;;;;;;13.35;3.30;;;;;;;;;;4933259;28;20126;-76
2022/06/19 08:31:20;;;;;;;11.20;3.30;;;;;;;;;;4919814;28;20027;-75
2022/06/19 08:33:48;;;;;;;12.32;2.88;;;;;;;;;;4930958;28;20035;-75
2022/06/19 08:36:44;;;;;;;14.20;2.92;;;;;;;;;;4929961;28;20153;-76
2022/06/19 08:39:25;;;;;;;14.20;3.40;;;;;;;;;;4935891;28;20035;-75
2022/06/19 08:42:11;;;;;;;13.32;3.03;;;;;;;;;;4929611;28;20039;-76
2022/06/19 08:44:55;;;;;;;10.82;3.15;;;;;;;;;;4938778;28;20030;-76
2022/06/19 08:47:40;;;;;;;13.40;3.85;;;;;;;;;;4930321;28;20628;-76
2022/06/19 08:50:26;;;;;;;17.52;3.42;;;;;;;;;;4939975;28;20444;-76
2022/06/19 08:52:53;;;;;;;;;;;;;;;;;;4924303;28;20035;-76
2022/06/19 08:55:26;;;;;;;12.25;3.15;;;;;;;;;;4925673;28;19918;-76
2022/06/19 08:58:23;;;;;;;13.50;3.28;;;;;;;;;;4921462;28;20126;-74
2022/06/19 09:00:51;;;;;;;11.27;3.38;;;;;;;;;;4922829;28;20525;-76
2022/06/19 09:03:20;;;;;;;11.75;3.20;;;;;;;;;;4911477;28;20814;-76
2022/06/19 09:05:51;;;;;;;9.18;2.83;;;;;;;;;;4926241;28;20529;-76
2022/06/19 09:08:17;;;;;;;14.45;2.88;;;;;;;;;;4916547;28;20648;-77
2022/06/19 09:10:49;;;;;;;11.98;2.80;;;;;;;;;;4929602;28;20057;-75
2022/06/19 09:13:30;;;;;;;11.15;2.88;;;;;;;;;;4931036;28;20043;-75
2022/06/19 09:16:08;;;;;;;12.70;3.22;;;;;;;;;;4919220;28;20046;-75
2022/06/19 09:18:39;;;;;;;11.88;3.03;;;;;;;;;;4935815;28;20039;-76
2022/06/19 09:21:09;;;;;;;11.70;3.47;;;;;;;;;;4913581;28;20932;-76
2022/06/19 09:23:49;;;;;;;11.15;3.45;;;;;;;;;;4932419;28;20035;-76
2022/06/19 09:26:21;;;;;;;11.52;3.05;;;;;;;;;;4935495;28;20054;-76
2022/06/19 09:29:12;;;;;;;10.40;2.95;;;;;;;;;;4934532;28;20038;-76
2022/06/19 09:31:48;;;;;;;11.30;3.08;;;;;;;;;;4910173;28;20043;-76
2022/06/19 09:34:23;;;;;;;12.10;2.95;;;;;;;;;;4938314;28;20534;-76
2022/06/19 09:36:56;;;;;;;9.25;2.85;;;;;;;;;;4931741;28;20122;-75
2022/06/19 09:39:34;;;;;;;15.48;3.50;;;;;;;;;;4944743;28;20046;-77
2022/06/19 09:42:20;;;;;;;11.55;2.90;;;;;;;;;;4931858;28;20440;-76
2022/06/19 09:45:06;;;;;;;11.82;2.90;;;;;;;;;;4935270;28;20042;-73
2022/06/19 09:47:36;;;;;;;11.02;2.83;;;;;;;;;;4936290;28;20102;-68
2022/06/19 09:50:22;;;;;;;13.18;2.80;;;;;;;;;;4932796;28;20035;-68
2022/06/19 09:52:54;;;;;;;11.45;2.90;;;;;;;;;;4932708;28;20078;-67
2022/06/19 09:55:43;;;;;;;9.20;2.60;;;;;;;;;;4921134;28;20039;-67
2022/06/19 09:58:15;;;;;;;11.10;2.45;;;;;;;;;;4933534;28;20281;-68
2022/06/19 10:00:48;;;;;;;11.15;2.58;;;;;;;;;;4928528;28;20573;-65
2022/06/19 10:03:21;;;;;;;12.57;3.05;;;;;;;;;;4932201;28;20872;-65
2022/06/19 10:06:08;;;;;;;12.20;2.65;;;;;;;;;;4928853;28;20231;-65
2022/06/19 10:08:47;;;;;;;10.35;2.83;;;;;;;;;;4931669;28;20045;-64
2022/06/19 10:11:19;;;;;;;10.02;2.55;;;;;;;;;;4938483;28;20047;-64
2022/06/19 10:14:21;;;;;;;11.68;2.90;;;;;;;;;;4934784;28;20030;-65
2022/06/19 10:17:07;;;;;;;10.10;2.95;;;;;;;;;;4918507;28;20554;-65
2022/06/19 10:19:52;;;;;;;14.00;3.80;;;;;;;;;;4930175;28;20437;-65
2022/06/19 10:22:40;;;;;;;10.43;3.17;;;;;;;;;;4929590;28;20065;-65
2022/06/19 10:25:27;;;;;;;10.40;3.05;;;;;;;;;;4937946;28;20464;-66
2022/06/19 10:28:13;;;;;;;9.45;2.28;;;;;;;;;;4934540;28;20646;-66
2022/06/19 10:31:00;;;;;;;11.38;2.67;;;;;;;;;;4935533;28;20191;-66
2022/06/19 10:33:47;;;;;;;8.73;2.65;;;;;;;;;;4936261;28;20101;-63
2022/06/19 10:36:34;;;;;;;11.23;2.60;;;;;;;;;;4941057;28;20062;-63
2022/06/19 10:39:20;;;;;;;10.30;2.70;;;;;;;;;;4934073;28;20061;-61
2022/06/19 10:42:06;;;;;;;9.57;2.45;;;;;;;;;;4931628;28;20094;-72
2022/06/19 10:44:33;;;;;;;;;;;;;;;;;;4929349;28;20461;-71
2022/06/19 10:47:21;;;;;;;10.65;2.72;;;;;;;;;;4928061;28;19915;-67
2022/06/19 10:50:06;;;;;;;11.93;2.70;;;;;;;;;;4917827;28;20057;-67
2022/06/19 10:52:53;;;;;;;10.18;2.80;;;;;;;;;;4922726;28;20385;-67
2022/06/19 10:55:22;;;;;;;11.15;2.55;;;;;;;;;;4903950;28;20037;-72
2022/06/19 10:57:59;;;;;;;11.80;2.53;;;;;;;;;;4912368;28;20759;-72
2022/06/19 11:00:26;;;;;;;12.75;2.90;;;;;;;;;;4913842;28;20146;-74
2022/06/19 11:05:49;;;;;;;7.65;2.00;;;;;;;;;;4913864;28;20380;-73
2022/06/19 11:08:17;;;;;;;11.20;2.70;;;;;;;;;;4918457;28;20037;-73
2022/06/19 11:10:47;;;;;;;11.30;2.83;;;;;;;;;;4925264;28;20019;-74
2022/06/19 11:13:15;;;;;;;9.70;2.63;;;;;;;;;;4907728;28;20426;-73
2022/06/19 11:15:48;;;;;;;11.60;2.67;;;;;;;;;;4918278;28;20388;-74
2022/06/19 11:18:14;;;;;;;11.05;2.70;;;;;;;;;;4932462;28;20046;-67
2022/06/19 11:20:48;;;;;;;11.57;2.80;;;;;;;;;;4920584;28;20039;-66
2022/06/19 11:23:17;;;;;;;9.80;2.28;;;;;;;;;;4923085;28;20055;-67
2022/06/19 11:25:45;;;;;;;7.95;2.10;;;;;;;;;;4922433;28;20087;-67
2022/06/19 11:28:17;;;;;;;10.85;2.72;;;;;;;;;;4923083;28;20047;-70
2022/06/19 11:30:48;;;;;;;7.93;2.40;;;;;;;;;;4920586;28;20019;-72
2022/06/19 11:33:15;;;;;;;8.80;2.55;;;;;;;;;;4923902;28;20107;-73
2022/06/19 11:35:56;;;;;;;9.88;2.67;;;;;;;;;;4926791;28;20513;-71
2022/06/19 11:38:32;;;;;;;9.95;2.47;;;;;;;;;;4933514;28;20421;-73
2022/06/19 11:40:59;;;;;;;8.80;1.95;;;;;;;;;;4916965;28;20031;-72
2022/06/19 11:43:28;;;;;;;13.48;2.53;;;;;;;;;;4931907;28;20030;-71
2022/06/19 11:46:00;;;;;;;10.02;2.50;;;;;;;;;;4911490;28;20031;-70
2022/06/19 11:48:30;;;;;;;9.98;2.58;;;;;;;;;;4936868;28;20085;-70
2022/06/19 11:50:57;;;;;;;13.00;2.47;;;;;;;;;;4925482;28;20047;-71
2022/06/19 11:53:25;;;;;;;11.25;2.38;;;;;;;;;;4927546;28;20440;-70
2022/06/19 11:56:11;;;;;;;9.38;2.40;;;;;;;;;;4924159;28;20522;-71
2022/06/19 11:58:40;;;;;;;10.73;2.20;;;;;;;;;;4934504;28;20041;-71
2022/06/19 12:01:21;;;;;;;7.50;1.80;;;;;;;;;;4932143;28;20046;-71
2022/06/19 12:03:57;;;;;;;14.02;2.30;;;;;;;;;;4928322;28;20046;-71
2022/06/19 12:06:49;;;;;;;14.32;3.10;;;;;;;;;;4911595;28;20046;-71
2022/06/19 12:09:33;;;;;;;10.93;2.60;;;;;;;;;;4928335;28;20023;-70
2022/06/19 12:12:10;;;;;;;9.63;2.30;;;;;;;;;;4929800;28;20500;-71
2022/06/19 12:14:55;;;;;;;13.80;2.97;;;;;;;;;;4937249;28;20034;-71
2022/06/19 12:17:46;;;;;;;11.10;3.10;;;;;;;;;;4931364;28;20057;-73
2022/06/19 12:20:16;;;;;;;12.75;2.33;;;;;;;;;;4929397;28;20515;-72
2022/06/19 12:22:58;;;;;;;10.93;2.30;;;;;;;;;;4930813;28;20057;-71
2022/06/19 12:25:34;;;;;;;10.23;2.20;;;;;;;;;;4932699;28;20031;-72
2022/06/19 12:28:20;;;;;;;11.38;2.33;;;;;;;;;;4926812;28;20023;-72
2022/06/19 12:30:50;;;;;;;9.40;2.50;;;;;;;;;;4937953;28;20030;-66
2022/06/19 12:33:30;;;;;;;10.13;2.28;;;;;;;;;;4934624;28;20039;-66
2022/06/19 12:35:59;;;;;;;8.52;1.95;;;;;;;;;;4933480;28;20596;-66
2022/06/19 12:38:41;;;;;;;12.85;2.67;;;;;;;;;;4935627;28;20684;-65
2022/06/19 12:41:27;;;;;;;11.30;2.50;;;;;;;;;;4937174;28;20114;-65
2022/06/19 12:44:07;;;;;;;9.45;2.10;;;;;;;;;;4936712;28;20030;-69
2022/06/19 12:46:59;;;;;;;10.35;2.30;;;;;;;;;;4933301;28;20782;-69
2022/06/19 12:49:46;;;;;;;11.43;1.90;;;;;;;;;;4935581;28;20558;-69
2022/06/19 12:52:16;;;;;;;10.90;2.30;;;;;;;;;;4930639;28;20043;-69
2022/06/19 12:54:52;;;;;;;9.07;2.10;;;;;;;;;;4927942;28;20122;-69
2022/06/19 12:57:38;;;;;;;9.35;1.90;;;;;;;;;;4933179;28;20030;-68
2022/06/19 13:00:11;;;;;;;7.53;1.80;;;;;;;;;;4891437;28;20478;-76
2022/06/19 13:02:38;;;;;;;11.73;2.00;;;;;;;;;;4941933;28;20023;-77
2022/06/19 13:05:16;;;;;;;10.90;2.50;;;;;;;;;;4925356;28;20093;-77
2022/06/19 13:08:00;;;;;;;10.90;2.30;;;;;;;;;;4932819;28;20520;-79
2022/06/19 13:10:32;;;;;;;9.75;2.00;;;;;;;;;;4932243;28;20027;-77
2022/06/19 13:13:07;;;;;;;12.82;2.50;;;;;;;;;;4932419;28;20492;-76
2022/06/19 13:15:57;;;;;;;10.60;2.33;;;;;;;;;;4938619;28;20036;-77
2022/06/19 13:18:46;;;;;;;14.07;2.85;;;;;;;;;;4934790;28;21474;-77
2022/06/19 13:21:29;;;;;;;8.63;2.20;;;;;;;;;;4940917;28;20039;-78
2022/06/19 13:23:55;;;;;;;12.02;2.40;;;;;;;;;;4920775;28;20039;-77
2022/06/19 13:29:15;;;;;;;9.75;2.25;;;;;;;;;;4938837;28;20454;-76
2022/06/19 13:31:54;;;;;;;8.68;2.22;;;;;;;;;;4936694;28;20027;-77
2022/06/19 13:34:27;;;;;;;9.60;2.33;;;;;;;;;;4932010;28;20485;-77
2022/06/19 13:37:02;;;;;;;10.48;2.30;;;;;;;;;;4937916;28;20062;-73
2022/06/19 13:39:28;;;;;;;11.43;2.20;;;;;;;;;;4934962;28;20858;-74
2022/06/19 13:41:57;;;;;;;9.23;2.13;;;;;;;;;;4921760;28;20062;-74
2022/06/19 13:44:36;;;;;;;10.55;2.22;;;;;;;;;;4937404;28;20045;-74
2022/06/19 13:47:05;;;;;;;13.55;2.58;;;;;;;;;;4930000;28;20034;-74
2022/06/19 13:49:38;;;;;;;10.05;2.40;;;;;;;;;;4931756;28;20027;-73
2022/06/19 13:52:07;;;;;;;7.20;1.73;;;;;;;;;;4928316;28;20423;-74
2022/06/19 13:55:11;;;;;;;8.07;1.80;;;;;;;;;;4932674;28;20595;-73
2022/06/19 13:57:49;;;;;;;12.15;2.53;;;;;;;;;;4874631;29;20071;-74
2022/06/19 14:00:42;;;;;;;9.90;2.15;;;;;;;;;;4855251;29;20503;-75
2022/06/19 14:04:45;;;;;;;7.95;2.10;;;;;;;;;;4872670;29;20039;-74
2022/06/19 14:06:22;;;;;;;9.35;2.53;;;;;;;;;;4879572;29;20040;-74
2022/06/19 14:09:01;;;;;;;10.05;2.35;;;;;;;;;;4875723;29;20490;-73
2022/06/19 14:12:03;;;;;;;12.23;2.70;;;;;;;;;;4870568;29;20048;-74
2022/06/19 14:14:25;;;;;;;11.38;2.50;;;;;;;;;;4874786;29;20044;-74
2022/06/19 14:17:11;;;;;;;13.13;2.38;;;;;;;;;;4876835;29;20148;-73
2022/06/19 14:19:40;;;;;;;11.35;2.45;;;;;;;;;;4877492;29;20499;-73
2022/06/19 14:22:29;;;;;;;9.75;2.50;;;;;;;;;;4877775;29;20033;-73
2022/06/19 14:25:14;;;;;;;9.13;2.00;;;;;;;;;;4878638;29;20600;-74
2022/06/19 14:28:13;;;;;;;13.50;2.50;;;;;;;;;;4888189;29;20051;-75
2022/06/19 14:30:45;;;;;;;10.27;2.42;;;;;;;;;;4815627;29;20060;-72
2022/06/19 14:33:44;;;;;;;10.23;2.67;;;;;;;;;;4839857;29;20424;-72
2022/06/19 14:36:33;;;;;;;9.50;2.75;;;;;;;;;;4777295;29;20070;-73
2022/06/19 14:39:21;;;;;;;8.93;2.35;;;;;;;;;;4770154;29;20608;-76
2022/06/19 14:41:58;;;;;;;13.32;2.30;;;;;;;;;;4773647;29;20042;-73
2022/06/19 14:44:26;;;;;;;9.70;2.40;;;;;;;;;;4767272;29;20054;-74
2022/06/19 14:47:15;;;;;;;10.07;2.35;;;;;;;;;;4768598;29;20410;-74
2022/06/19 14:50:03;;;;;;;9.77;2.17;;;;;;;;;;4775329;29;20043;-73
2022/06/19 14:52:49;;;;;;;12.23;2.50;;;;;;;;;;4778423;29;20193;-73
2022/06/19 14:55:19;;;;;;;11.68;1.98;;;;;;;;;;4772585;29;20059;-72
2022/06/19 14:57:50;;;;;;;10.20;2.40;;;;;;;;;;4771770;29;20038;-72
2022/06/19 15:00:22;;;;;;;12.77;2.75;;;;;;;;;;4777305;29;20099;-74
2022/06/19 15:02:54;;;;;;;11.88;2.55;;;;;;;;;;4775249;29;20046;-73
2022/06/19 15:05:25;;;;;;;11.90;2.58;;;;;;;;;;4781859;29;20051;-74
2022/06/19 15:07:56;;;;;;;9.43;2.30;;;;;;;;;;4806938;29;21316;-73
2022/06/19 15:10:25;;;;;;;10.50;2.20;;;;;;;;;;4800085;29;20133;-73
2022/06/19 15:13:08;;;;;;;12.13;2.30;;;;;;;;;;4865544;29;20036;-73
2022/06/19 15:15:39;;;;;;;8.85;2.30;;;;;;;;;;4903368;29;20039;-73
2022/06/19 15:18:13;;;;;;;13.25;2.53;;;;;;;;;;4900307;28;20047;-74